createdAt,value
2023-04-15T00:01:37.257Z,5.70
2023-04-15T00:04:04.728Z,8.40
2023-04-15T00:06:31.333Z,6.40
2023-04-15T00:08:57.906Z,6.57
2023-04-15T00:11:24.533Z,9.50
2023-04-15T00:13:51.167Z,8.63
2023-04-15T00:16:17.794Z,5.80
2023-04-15T00:18:44.276Z,6.32
2023-04-15T00:21:10.708Z,8.55
2023-04-15T00:23:37.132Z,7.47
2023-04-15T00:26:03.531Z,5.67
2023-04-15T00:28:31.008Z,7.45
2023-04-15T00:30:57.670Z,8.18
2023-04-15T00:33:24.096Z,8.80
2023-04-15T00:35:50.913Z,6.57
2023-04-15T00:38:17.716Z,6.17
2023-04-15T00:40:44.193Z,7.20
2023-04-15T00:43:10.630Z,6.75
2023-04-15T00:45:37.277Z,7.55
2023-04-15T00:48:05.029Z,6.60
2023-04-15T00:50:31.445Z,8.77
2023-04-15T00:52:57.796Z,6.63
2023-04-15T00:55:24.234Z,6.55
2023-04-15T00:57:50.756Z,7.55
2023-04-15T01:00:17.093Z,6.57
2023-04-15T01:02:43.748Z,6.97
2023-04-15T01:05:10.310Z,7.78
2023-04-15T01:07:36.873Z,8.07
2023-04-15T01:10:04.515Z,7.82
2023-04-15T01:12:33.049Z,6.72
2023-04-15T01:15:00.226Z,6.30
2023-04-15T01:17:26.774Z,8.45
2023-04-15T01:19:55.481Z,5.25
2023-04-15T01:22:22.393Z,6.45
2023-04-15T01:25:01.872Z,7.53
2023-04-15T01:27:28.305Z,8.43
2023-04-15T01:29:54.740Z,8.75
2023-04-15T01:32:21.371Z,6.40
2023-04-15T01:34:47.784Z,8.50
2023-04-15T01:37:14.269Z,7.25
2023-04-15T01:39:41.090Z,7.23
2023-04-15T01:42:07.552Z,7.97
2023-04-15T01:44:33.965Z,6.90
2023-04-15T01:47:00.653Z,7.00
2023-04-15T01:49:27.598Z,6.82
2023-04-15T01:51:54.233Z,10.10
2023-04-15T01:54:20.674Z,7.93
2023-04-15T01:56:47.261Z,5.35
2023-04-15T01:59:13.862Z,7.18
2023-04-15T02:01:40.932Z,12.02
2023-04-15T02:04:08.135Z,7.87
2023-04-15T02:06:34.689Z,7.13
2023-04-15T02:09:01.338Z,6.70
2023-04-15T02:11:28.197Z,8.98
2023-04-15T02:13:54.828Z,6.65
2023-04-15T02:16:22.000Z,5.10
2023-04-15T02:18:48.574Z,6.22
2023-04-15T02:21:15.048Z,8.65
2023-04-15T02:23:41.681Z,7.38
2023-04-15T02:26:08.219Z,10.43
2023-04-15T02:28:34.716Z,5.77
2023-04-15T02:31:02.226Z,5.88
2023-04-15T02:33:28.626Z,4.63
2023-04-15T02:35:55.028Z,6.63
2023-04-15T02:38:21.465Z,8.20
2023-04-15T02:40:49.649Z,6.73
2023-04-15T02:43:17.215Z,7.45
2023-04-15T02:45:44.109Z,6.45
2023-04-15T02:48:10.977Z,6.50
2023-04-15T02:50:39.885Z,6.32
2023-04-15T02:53:07.246Z,7.20
2023-04-15T02:55:33.668Z,7.80
2023-04-15T02:58:01.078Z,7.60
2023-04-15T03:00:28.285Z,8.18
2023-04-15T03:02:59.458Z,6.15
2023-04-15T03:05:26.208Z,9.13
2023-04-15T03:07:53.065Z,8.25
2023-04-15T03:10:20.141Z,5.93
2023-04-15T03:12:46.837Z,7.75
2023-04-15T03:15:13.675Z,9.07
2023-04-15T03:17:40.260Z,7.30
2023-04-15T03:20:07.264Z,6.38
2023-04-15T03:22:33.845Z,10.85
2023-04-15T03:25:00.400Z,5.40
2023-04-15T03:27:26.790Z,7.88
2023-04-15T03:29:53.209Z,7.73
2023-04-15T03:32:19.723Z,7.30
2023-04-15T03:34:46.213Z,5.68
2023-04-15T03:37:12.593Z,9.32
2023-04-15T03:39:39.316Z,6.65
2023-04-15T03:42:06.051Z,8.00
2023-04-15T03:44:32.804Z,6.20
2023-04-15T03:46:59.196Z,7.45
2023-04-15T03:49:25.604Z,6.15
2023-04-15T03:51:52.188Z,6.10
2023-04-15T03:54:18.598Z,6.17
2023-04-15T03:56:44.940Z,7.35
2023-04-15T03:59:11.459Z,8.63
2023-04-15T04:01:37.897Z,5.00
2023-04-15T04:04:04.441Z,7.85
2023-04-15T04:06:31.084Z,7.33
2023-04-15T04:08:57.445Z,7.90
2023-04-15T04:11:23.863Z,6.18
2023-04-15T04:13:50.232Z,7.30
2023-04-15T04:16:17.305Z,6.55
2023-04-15T04:18:43.817Z,7.07
2023-04-15T04:21:10.768Z,6.57
2023-04-15T04:23:37.285Z,8.77
2023-04-15T04:26:03.667Z,6.97
2023-04-15T04:28:30.163Z,7.13
2023-04-15T04:30:56.682Z,6.17
2023-04-15T04:33:23.158Z,6.47
2023-04-15T04:35:49.577Z,6.35
2023-04-15T04:38:15.929Z,7.13
2023-04-15T04:40:42.300Z,7.28
2023-04-15T04:43:09.406Z,6.47
2023-04-15T04:45:36.267Z,8.60
2023-04-15T04:48:06.574Z,6.43
2023-04-15T04:50:33.284Z,5.85
2023-04-15T04:52:59.916Z,5.60
2023-04-15T04:55:27.050Z,8.53
2023-04-15T04:57:53.454Z,6.68
2023-04-15T05:00:20.298Z,7.32
2023-04-15T05:02:46.857Z,6.95
2023-04-15T05:05:13.375Z,5.82
2023-04-15T05:07:39.885Z,7.53
2023-04-15T05:10:06.930Z,8.05
2023-04-15T05:12:33.389Z,6.63
2023-04-15T05:14:59.845Z,6.20
2023-04-15T05:17:26.288Z,6.53
2023-04-15T05:19:53.784Z,6.37
2023-04-15T05:22:20.316Z,5.80
2023-04-15T05:24:46.700Z,6.55
2023-04-15T05:27:13.096Z,6.78
2023-04-15T05:29:39.501Z,6.28
2023-04-15T05:32:06.553Z,7.13
2023-04-15T05:34:32.901Z,8.90
2023-04-15T05:36:59.279Z,6.85
2023-04-15T05:39:25.700Z,6.07
2023-04-15T05:41:52.190Z,8.18
2023-04-15T05:44:18.796Z,6.10
2023-04-15T05:46:45.232Z,5.68
2023-04-15T05:49:12.022Z,9.25
2023-04-15T05:51:38.469Z,6.60
2023-04-15T05:54:04.896Z,6.85
2023-04-15T05:56:31.623Z,6.67
2023-04-15T05:58:57.982Z,8.13
2023-04-15T06:01:25.310Z,7.68
2023-04-15T06:03:51.926Z,8.18
2023-04-15T06:06:18.754Z,8.40
2023-04-15T06:08:45.124Z,6.07
2023-04-15T06:11:11.643Z,8.32
2023-04-15T06:13:38.037Z,7.85
2023-04-15T06:16:04.764Z,7.05
2023-04-15T06:18:31.237Z,7.28
2023-04-15T06:20:57.837Z,7.93
2023-04-15T06:23:25.286Z,8.63
2023-04-15T06:25:52.791Z,7.32
2023-04-15T06:28:19.239Z,8.90
2023-04-15T06:30:45.723Z,9.65
2023-04-15T06:33:12.471Z,10.07
2023-04-15T06:35:39.332Z,9.30
2023-04-15T06:38:06.186Z,6.35
2023-04-15T06:40:32.622Z,8.93
2023-04-15T06:42:59.110Z,6.82
2023-04-15T06:45:25.607Z,8.33
2023-04-15T06:47:52.262Z,12.23
2023-04-15T06:50:18.719Z,8.77
2023-04-15T06:52:45.125Z,10.90
2023-04-15T06:55:11.588Z,7.68
2023-04-15T06:57:37.986Z,7.20
2023-04-15T07:00:05.686Z,9.38
2023-04-15T07:02:32.245Z,10.07
2023-04-15T07:04:58.817Z,9.30
2023-04-15T07:07:25.609Z,9.98
2023-04-15T07:09:53.716Z,10.57
2023-04-15T07:12:20.793Z,6.93
2023-04-15T07:14:47.438Z,9.63
2023-04-15T07:17:13.922Z,8.43
2023-04-15T07:19:40.552Z,9.07
2023-04-15T07:22:07.709Z,8.90
2023-04-15T07:24:34.170Z,10.15
2023-04-15T07:27:01.142Z,9.80
2023-04-15T07:29:27.924Z,8.13
2023-04-15T07:31:54.376Z,8.32
2023-04-15T07:34:20.958Z,9.80
2023-04-15T07:36:50.504Z,8.15
2023-04-15T07:39:17.155Z,9.23
2023-04-15T07:41:43.733Z,9.00
2023-04-15T07:44:10.413Z,8.60
2023-04-15T07:46:38.354Z,8.03
2023-04-15T07:49:05.140Z,7.72
2023-04-15T07:51:32.187Z,7.00
2023-04-15T07:53:58.855Z,5.53
2023-04-15T07:56:26.380Z,6.47
2023-04-15T07:58:53.136Z,5.23
2023-04-15T08:01:19.588Z,5.45
2023-04-15T08:03:46.322Z,5.50
2023-04-15T08:06:13.046Z,6.05
2023-04-15T08:08:39.493Z,5.57
2023-04-15T08:11:05.955Z,5.40
2023-04-15T08:13:32.333Z,5.28
2023-04-15T08:16:23.450Z,4.90
2023-04-15T08:18:52.106Z,5.07
2023-04-15T08:21:19.685Z,5.47
2023-04-15T08:23:47.495Z,5.67
2023-04-15T08:26:14.259Z,4.45
2023-04-15T08:28:41.814Z,4.45
2023-04-15T08:31:09.637Z,4.85
2023-04-15T08:33:36.267Z,4.03
2023-04-15T08:36:03.239Z,4.30
2023-04-15T08:38:29.630Z,5.43
2023-04-15T08:40:58.338Z,4.57
2023-04-15T08:43:28.599Z,3.30
2023-04-15T08:45:55.746Z,4.82
2023-04-15T08:48:24.516Z,3.77
2023-04-15T08:50:51.826Z,4.25
2023-04-15T08:53:18.236Z,4.15
2023-04-15T08:55:46.327Z,4.35
2023-04-15T08:58:14.220Z,5.95
2023-04-15T09:00:41.219Z,4.37
2023-04-15T09:03:09.273Z,6.55
2023-04-15T09:05:37.249Z,4.40
2023-04-15T09:08:05.286Z,4.30
2023-04-15T09:10:33.661Z,4.63
2023-04-15T09:13:02.850Z,3.70
2023-04-15T09:15:30.389Z,4.28
2023-04-15T09:17:57.862Z,4.28
2023-04-15T09:20:24.578Z,7.35
2023-04-15T09:22:52.383Z,4.38
2023-04-15T09:25:21.836Z,3.53
2023-04-15T09:27:53.128Z,10.98
2023-04-15T09:30:19.573Z,4.80
2023-04-15T09:32:53.918Z,3.42
2023-04-15T09:35:22.318Z,3.72
2023-04-15T09:37:53.221Z,4.10
2023-04-15T09:40:33.861Z,3.58
2023-04-15T09:43:01.949Z,2.67
2023-04-15T09:45:29.673Z,3.05
2023-04-15T09:47:59.145Z,4.00
2023-04-15T09:50:29.518Z,4.03
2023-04-15T09:52:56.351Z,6.40
2023-04-15T09:55:23.112Z,4.78
2023-04-15T09:57:49.598Z,5.50
2023-04-15T10:00:16.349Z,3.75
2023-04-15T10:02:43.322Z,4.20
2023-04-15T10:05:18.034Z,4.37
2023-04-15T10:07:45.796Z,2.60
2023-04-15T10:10:13.405Z,3.17
2023-04-15T10:12:42.054Z,3.95
2023-04-15T10:15:14.873Z,3.38
2023-04-15T10:17:44.388Z,4.00
2023-04-15T10:20:12.903Z,3.58
2023-04-15T10:22:41.188Z,1.63
2023-04-15T10:25:08.942Z,2.78
2023-04-15T10:27:36.720Z,3.70
2023-04-15T10:30:03.777Z,2.40
2023-04-15T10:32:30.724Z,6.13
2023-04-15T10:34:58.125Z,3.08
2023-04-15T10:37:38.201Z,2.53
2023-04-15T10:40:24.455Z,2.85
2023-04-15T10:42:51.265Z,2.27
2023-04-15T10:45:19.284Z,2.75
2023-04-15T10:47:45.918Z,3.35
2023-04-15T10:50:12.621Z,5.20
2023-04-15T10:52:42.554Z,4.50
2023-04-15T10:55:22.538Z,2.80
2023-04-15T10:57:58.636Z,2.83
2023-04-15T11:00:26.837Z,5.22
2023-04-15T11:03:15.203Z,3.70
2023-04-15T11:05:41.746Z,3.63
2023-04-15T11:08:09.202Z,2.53
2023-04-15T11:10:35.801Z,2.35
2023-04-15T11:13:16.542Z,2.38
2023-04-15T11:15:47.934Z,3.03
2023-04-15T11:18:28.676Z,1.92
2023-04-15T11:20:59.950Z,2.20
2023-04-15T11:23:32.108Z,1.42
2023-04-15T11:26:00.014Z,2.38
2023-04-15T11:28:28.122Z,5.90
2023-04-15T11:30:55.731Z,5.20
2023-04-15T11:33:23.717Z,4.20
2023-04-15T11:35:51.959Z,2.78
2023-04-15T11:38:18.906Z,2.17
2023-04-15T11:40:47.237Z,3.95
2023-04-15T11:43:16.571Z,2.10
2023-04-15T11:45:51.481Z,1.67
2023-04-15T11:48:18.676Z,4.85
2023-04-15T11:50:45.556Z,2.30
2023-04-15T11:53:13.621Z,5.22
2023-04-15T11:55:44.694Z,1.98
2023-04-15T11:58:18.652Z,3.40
2023-04-15T12:00:57.062Z,2.60
2023-04-15T12:03:28.330Z,1.60
2023-04-15T12:06:11.546Z,2.97
2023-04-15T12:08:58.337Z,2.97
2023-04-15T12:11:28.526Z,2.67
2023-04-15T12:14:05.696Z,1.92
2023-04-15T12:16:48.266Z,1.70
2023-04-15T12:19:36.002Z,1.75
2023-04-15T12:22:05.276Z,3.20
2023-04-15T12:24:33.563Z,1.47
2023-04-15T12:27:08.300Z,1.50
2023-04-15T12:29:36.545Z,1.98
2023-04-15T12:32:13.834Z,2.00
2023-04-15T12:34:49.548Z,1.75
2023-04-15T12:37:16.279Z,2.57
2023-04-15T12:39:44.792Z,3.38
2023-04-15T12:42:12.197Z,1.63
2023-04-15T12:44:39.856Z,2.55
2023-04-15T12:47:07.744Z,1.48
2023-04-15T12:49:34.588Z,2.40
2023-04-15T12:52:02.417Z,2.88
2023-04-15T12:54:30.204Z,2.70
2023-04-15T12:56:57.926Z,1.50
2023-04-15T12:59:24.532Z,2.35
2023-04-15T13:01:52.429Z,1.30
2023-04-15T13:04:20.550Z,2.92
2023-04-15T13:06:47.280Z,1.35
2023-04-15T13:09:13.917Z,2.17
2023-04-15T13:11:40.775Z,1.88
2023-04-15T13:14:08.879Z,2.57
2023-04-15T13:16:36.003Z,2.80
2023-04-15T13:19:03.499Z,1.67
2023-04-15T13:21:32.200Z,1.55
2023-04-15T13:23:59.315Z,2.90
2023-04-15T13:26:25.793Z,2.17
2023-04-15T13:28:52.144Z,1.73
2023-04-15T13:31:18.557Z,3.08
2023-04-15T13:33:45.106Z,1.98
2023-04-15T13:36:11.531Z,2.40
2023-04-15T13:38:37.937Z,1.30
2023-04-15T13:41:04.403Z,4.20
2023-04-15T13:43:31.719Z,2.53
2023-04-15T13:45:58.249Z,2.17
2023-04-15T13:48:24.792Z,1.27
2023-04-15T13:50:51.152Z,1.83
2023-04-15T13:53:17.658Z,0.98
2023-04-15T13:55:44.222Z,2.45
2023-04-15T13:58:11.324Z,1.33
2023-04-15T14:00:37.793Z,3.53
2023-04-15T14:03:04.751Z,2.63
2023-04-15T14:05:32.316Z,1.50
2023-04-15T14:07:59.559Z,2.80
2023-04-15T14:10:25.984Z,2.50
2023-04-15T14:12:52.355Z,1.58
2023-04-15T14:15:19.206Z,1.57
2023-04-15T14:17:45.904Z,3.60
2023-04-15T14:20:13.538Z,2.55
2023-04-15T14:22:41.093Z,2.45
2023-04-15T14:25:07.890Z,3.05
2023-04-15T14:27:34.384Z,4.90
2023-04-15T14:30:00.899Z,3.05
2023-04-15T14:32:27.411Z,2.20
2023-04-15T14:34:53.834Z,3.15
2023-04-15T14:37:20.448Z,2.75
2023-04-15T14:39:46.838Z,4.33
2023-04-15T14:42:13.188Z,4.43
2023-04-15T14:44:39.639Z,2.28
2023-04-15T14:47:06.047Z,2.60
2023-04-15T14:49:32.492Z,4.80
2023-04-15T14:51:58.907Z,2.57
2023-04-15T14:54:25.553Z,2.38
2023-04-15T14:56:52.164Z,2.85
2023-04-15T14:59:18.638Z,1.90
2023-04-15T15:01:45.411Z,2.42
2023-04-15T15:04:12.933Z,4.00
2023-04-15T15:06:40.116Z,4.28
2023-04-15T15:09:06.863Z,2.05
2023-04-15T15:11:33.560Z,2.33
2023-04-15T15:14:00.124Z,2.80
2023-04-15T15:16:28.292Z,2.10
2023-04-15T15:18:55.064Z,6.57
2023-04-15T15:21:21.517Z,1.63
2023-04-15T15:23:48.481Z,2.45
2023-04-15T15:26:15.356Z,2.00
2023-04-15T15:28:42.222Z,4.37
2023-04-15T15:31:08.789Z,1.95
2023-04-15T15:33:35.297Z,4.63
2023-04-15T15:36:02.119Z,2.65
2023-04-15T15:38:28.510Z,3.95
2023-04-15T15:40:54.975Z,1.93
2023-04-15T15:43:21.356Z,4.20
2023-04-15T15:45:51.473Z,2.00
2023-04-15T15:48:18.468Z,8.32
2023-04-15T15:50:45.448Z,6.15
2023-04-15T15:53:12.349Z,5.40
2023-04-15T15:55:38.778Z,3.30
2023-04-15T15:58:05.163Z,3.97
2023-04-15T16:00:31.663Z,2.45
2023-04-15T16:05:27.557Z,1.70
2023-04-15T16:07:54.010Z,5.35
2023-04-15T16:10:20.524Z,3.67
2023-04-15T16:12:47.036Z,4.40
2023-04-15T16:15:13.712Z,3.30
2023-04-15T16:17:40.327Z,4.00
2023-04-15T16:20:07.415Z,3.05
2023-04-15T16:22:37.188Z,4.10
2023-04-15T16:25:03.868Z,3.13
2023-04-15T16:27:30.293Z,7.30
2023-04-15T16:29:56.769Z,2.90
2023-04-15T16:32:23.274Z,5.60
2023-04-15T16:34:49.748Z,3.20
2023-04-15T16:37:16.317Z,2.85
2023-04-15T16:39:42.816Z,7.43
2023-04-15T16:42:10.083Z,2.00
2023-04-15T16:44:36.546Z,4.78
2023-04-15T16:47:03.087Z,4.32
2023-04-15T16:49:29.840Z,1.20
2023-04-15T16:51:57.062Z,3.83
2023-04-15T16:54:23.585Z,2.70
2023-04-15T16:56:50.011Z,4.63
2023-04-15T16:59:16.427Z,4.28
2023-04-15T17:01:42.926Z,4.03
2023-04-15T17:04:09.469Z,4.68
2023-04-15T17:06:36.195Z,6.67
2023-04-15T17:09:02.730Z,2.47
2023-04-15T17:11:29.214Z,4.65
2023-04-15T17:13:55.714Z,3.33
2023-04-15T17:16:22.201Z,5.22
2023-04-15T17:18:50.329Z,3.43
2023-04-15T17:21:17.453Z,2.80
2023-04-15T17:23:43.926Z,1.33
2023-04-15T17:26:10.670Z,5.05
2023-04-15T17:28:37.155Z,3.50
2023-04-15T17:31:04.343Z,3.57
2023-04-15T17:33:57.516Z,3.42
2023-04-15T17:36:17.266Z,4.82
2023-04-15T17:38:43.673Z,3.33
2023-04-15T17:41:10.082Z,4.85
2023-04-15T17:43:36.520Z,5.77
2023-04-15T17:46:03.066Z,3.50
2023-04-15T17:48:29.543Z,5.22
2023-04-15T17:50:55.959Z,4.03
2023-04-15T17:53:22.328Z,4.55
2023-04-15T17:55:50.239Z,4.53
2023-04-15T17:58:16.660Z,2.78
2023-04-15T18:00:43.086Z,6.63
2023-04-15T18:03:09.663Z,6.93
2023-04-15T18:05:36.304Z,3.38
2023-04-15T18:08:02.753Z,6.37
2023-04-15T18:10:29.352Z,1.77
2023-04-15T18:12:55.945Z,2.60
2023-04-15T18:15:22.374Z,6.40
2023-04-15T18:17:48.800Z,6.68
2023-04-15T18:20:15.539Z,1.07
2023-04-15T18:22:42.793Z,7.38
2023-04-15T18:25:09.479Z,1.77
2023-04-15T18:27:38.937Z,4.07
2023-04-15T18:30:08.031Z,3.25
2023-04-15T18:32:34.604Z,3.70
2023-04-15T18:35:01.436Z,2.63
2023-04-15T18:37:30.894Z,5.40
2023-04-15T18:39:58.220Z,2.75
2023-04-15T18:42:25.582Z,0.93
2023-04-15T18:44:52.968Z,4.43
2023-04-15T18:47:19.670Z,4.30
2023-04-15T18:49:46.158Z,1.13
2023-04-15T18:52:12.639Z,5.97
2023-04-15T18:54:39.056Z,2.97
2023-04-15T18:57:06.412Z,1.97
2023-04-15T18:59:33.633Z,9.88
2023-04-15T19:02:01.101Z,4.32
2023-04-15T19:04:30.593Z,3.58
2023-04-15T19:06:57.280Z,4.05
2023-04-15T19:09:23.685Z,4.20
2023-04-15T19:11:50.298Z,1.83
2023-04-15T19:14:17.738Z,3.58
2023-04-15T19:16:44.341Z,4.57
2023-04-15T19:19:14.310Z,1.98
2023-04-15T19:21:41.217Z,2.73
2023-04-15T19:24:07.646Z,4.50
2023-04-15T19:26:34.328Z,5.03
2023-04-15T19:29:00.967Z,3.90
2023-04-15T19:31:27.334Z,2.30
2023-04-15T19:33:53.729Z,2.23
2023-04-15T19:36:20.274Z,2.83
2023-04-15T19:38:46.657Z,4.50
2023-04-15T19:41:13.068Z,4.38
2023-04-15T19:43:39.499Z,3.47
2023-04-15T19:46:06.995Z,3.93
2023-04-15T19:48:33.493Z,3.47
2023-04-15T19:51:00.562Z,4.00
2023-04-15T19:53:26.965Z,3.08
2023-04-15T19:55:53.380Z,2.35
2023-04-15T19:58:19.810Z,2.87
2023-04-15T20:00:46.303Z,2.13
2023-04-15T20:03:12.873Z,2.28
2023-04-15T20:05:39.337Z,2.88
2023-04-15T20:08:05.804Z,4.80
2023-04-15T20:10:32.259Z,1.93
2023-04-15T20:12:58.722Z,1.75
2023-04-15T20:15:25.206Z,3.75
2023-04-15T20:17:51.703Z,6.88
2023-04-15T20:20:18.508Z,7.57
2023-04-15T20:22:45.013Z,5.67
2023-04-15T20:25:11.470Z,3.83
2023-04-15T20:27:37.866Z,3.03
2023-04-15T20:30:04.954Z,8.18
2023-04-15T20:32:36.005Z,4.32
2023-04-15T20:35:04.246Z,4.27
2023-04-15T20:37:33.312Z,3.08
2023-04-15T20:40:01.009Z,4.60
2023-04-15T20:42:27.474Z,3.92
2023-04-15T20:44:53.869Z,3.63
2023-04-15T20:47:20.405Z,4.57
2023-04-15T20:49:47.361Z,3.22
2023-04-15T20:52:13.845Z,2.42
2023-04-15T20:54:40.322Z,3.83
2023-04-15T20:57:06.791Z,6.15
2023-04-15T20:59:34.811Z,1.80
2023-04-15T21:02:01.776Z,6.13
2023-04-15T21:04:28.289Z,5.40
2023-04-15T21:06:54.787Z,7.15
2023-04-15T21:09:21.188Z,2.97
2023-04-15T21:14:18.158Z,4.50
2023-04-15T21:16:44.685Z,4.93
2023-04-15T21:19:11.214Z,6.22
2023-04-15T21:21:37.692Z,5.45
2023-04-15T21:24:04.247Z,5.87
2023-04-15T21:26:30.703Z,4.97
2023-04-15T21:28:57.104Z,7.43
2023-04-15T21:31:23.571Z,8.60
2023-04-15T21:33:50.152Z,3.25
2023-04-15T21:36:16.581Z,5.73
2023-04-15T21:38:42.954Z,5.00
2023-04-15T21:41:10.234Z,3.50
2023-04-15T21:43:37.056Z,2.65
2023-04-15T21:46:23.090Z,3.75
2023-04-15T21:48:50.687Z,7.03
2023-04-15T21:51:17.182Z,4.38
2023-04-15T21:53:43.643Z,4.78
2023-04-15T21:56:10.233Z,4.22
2023-04-15T21:58:36.710Z,2.10
2023-04-15T22:01:04.541Z,4.27
2023-04-15T22:03:34.047Z,5.68
2023-04-15T22:06:02.318Z,3.70
2023-04-15T22:08:29.028Z,2.22
2023-04-15T22:10:55.530Z,3.85
2023-04-15T22:13:21.922Z,3.57
2023-04-15T22:15:48.298Z,2.63
2023-04-15T22:18:14.861Z,2.50
2023-04-15T22:20:41.469Z,4.82
2023-04-15T22:23:08.886Z,5.03
2023-04-15T22:25:37.154Z,4.53
2023-04-15T22:28:08.221Z,5.03
2023-04-15T22:30:41.838Z,6.20
2023-04-15T22:33:09.681Z,5.07
2023-04-15T22:35:37.294Z,5.05
2023-04-15T22:38:04.741Z,6.90
2023-04-15T22:40:31.272Z,3.83
2023-04-15T22:42:57.690Z,3.03
2023-04-15T22:45:24.111Z,6.25
2023-04-15T22:47:50.598Z,4.13
2023-04-15T22:50:17.140Z,4.70
2023-04-15T22:52:46.048Z,1.83
2023-04-15T22:55:13.115Z,4.10
2023-04-15T22:57:39.577Z,2.38
2023-04-15T23:00:07.374Z,5.10
2023-04-15T23:02:34.750Z,4.87
2023-04-15T23:05:01.577Z,3.85
2023-04-15T23:07:32.635Z,4.10
2023-04-15T23:10:01.009Z,4.10
2023-04-15T23:12:27.919Z,5.10
2023-04-15T23:14:54.303Z,4.23
2023-04-15T23:17:20.722Z,5.05
2023-04-15T23:19:47.141Z,3.85
2023-04-15T23:22:13.688Z,2.58
2023-04-15T23:24:40.082Z,4.80
2023-04-15T23:27:06.495Z,3.30
2023-04-15T23:29:33.012Z,9.52
2023-04-15T23:31:59.478Z,2.42
2023-04-15T23:34:26.213Z,5.93
2023-04-15T23:36:52.573Z,4.25
2023-04-15T23:39:18.949Z,3.23
2023-04-15T23:41:45.517Z,4.40
2023-04-15T23:44:11.872Z,7.63
2023-04-15T23:46:38.267Z,7.57
2023-04-15T23:49:04.727Z,5.75
2023-04-15T23:51:31.182Z,5.43
2023-04-15T23:53:57.638Z,4.05
2023-04-15T23:56:24.086Z,2.55
2023-04-15T23:58:50.617Z,7.40
